Notre Dame — FHST — position and weather

sailwx.info

Track history (hours):
 
Tides and Currents Weather Stations Pressure Air Temp Water Temp Dewpoint Dewpoint Depression Visibility Wind Speed Wind Dir Waves Ship Positions

Notre Dame

Last reported at 2017-Nov-17 20:27 UTC. Time now 2017-Nov-22 13:12 UTC.
Position N 47°50' W 004°10'.

Length 24 m; draft 3.4 m.

Type: Fishing. MMSI: 227820000.

Date/timePositionNaut miles runAvg speedWind from/ knotsBaromVisibWave heightAir tempDewpointWater temp
2017-Nov-17 20:27N 47°50' W 004°10'0 0.0
2017-Nov-17 19:59N 47°50' W 004°10'0 0.0
2017-Nov-17 19:26N 47°50' W 004°10'0 0.0
2017-Nov-17 18:56N 47°50' W 004°10'0 0.0
2017-Nov-17 18:30N 47°50' W 004°10'0 0.0
2017-Nov-17 18:00N 47°50' W 004°10'0 0.0
2017-Nov-17 17:29N 47°50' W 004°10'0 0.0
2017-Nov-17 17:00N 47°50' W 004°10'0 0.0
2017-Nov-17 16:28N 47°50' W 004°10'0 0.0
2017-Nov-17 15:56N 47°50' W 004°10'0 0.1
2017-Nov-17 14:44N 47°50' W 004°10'2 6.2
2017-Nov-17 14:26N 47°49' W 004°08'5 9.9
2017-Nov-17 13:56N 47°45' W 004°11'5 9.8
2017-Nov-17 13:22N 47°39' W 004°14'5 9.8
2017-Nov-17 12:54N 47°35' W 004°16'4 9.7
2017-Nov-17 12:28N 47°31' W 004°18'5 9.9
2017-Nov-17 12:00N 47°27' W 004°21'21 9.9
2017-Nov-17 09:54N 47°07' W 004°31'7 9.7
2017-Nov-17 09:11N 47°01' W 004°34'3 9.6
2017-Nov-17 08:53N 46°58' W 004°36'4 9.5
2017-Nov-17 08:30N 46°54' W 004°37'13 7.6
2017-Nov-17 06:51N 46°43' W 004°44'1 2.2
2017-Nov-17 06:29N 46°42' W 004°44'1 1.8
2017-Nov-17 05:58N 46°41' W 004°45'1 2.0
2017-Nov-17 05:30N 46°41' W 004°46'1 1.5
2017-Nov-17 04:58N 46°41' W 004°46'1 2.3
2017-Nov-17 04:30N 46°42' W 004°46'0 0.8
2017-Nov-17 04:00N 46°43' W 004°46'0 1.0
2017-Nov-17 03:30N 46°43' W 004°47'1 1.8
2017-Nov-17 02:57N 46°44' W 004°46'1 2.2
2017-Nov-17 02:30N 46°45' W 004°45'2 1.3
2017-Nov-17 01:00N 46°44' W 004°48'1 1.9
2017-Nov-17 00:14N 46°43' W 004°49'3 1.5
2017-Nov-16 22:00N 46°46' W 004°47'2 0.3
2017-Nov-16 16:10N 46°48' W 004°46'2 2.6
2017-Nov-16 15:32N 46°47' W 004°46'1 2.3
2017-Nov-16 14:53N 46°45' W 004°45'3 0.5
2017-Nov-16 08:45N 46°46' W 004°50'1 0.9
2017-Nov-16 07:40N 46°46' W 004°51'1 2.0
2017-Nov-16 07:13N 46°47' W 004°50'3 3.6
2017-Nov-16 06:14N 46°45' W 004°47'1 1.2
2017-Nov-16 05:36N 46°45' W 004°48'1 9.2
2017-Nov-16 05:30N 46°46' W 004°48'3 6.3
2017-Nov-16 04:59N 46°48' W 004°51'1 1.7
2017-Nov-16 04:30N 46°47' W 004°52'1 1.9
2017-Nov-16 03:52N 46°46' W 004°52'1 2.2
2017-Nov-16 03:30N 46°45' W 004°53'1 1.7
2017-Nov-16 02:57N 46°46' W 004°53'1 2.6
2017-Nov-16 02:30N 46°47' W 004°53'1 1.8
2017-Nov-16 01:59N 46°48' W 004°52'1 2.1
2017-Nov-16 01:27N 46°49' W 004°51'1 2.3
2017-Nov-16 00:56N 46°49' W 004°50'1 2.1
2017-Nov-16 00:26N 46°49' W 004°48'1 2.0
2017-Nov-16 00:00N 46°50' W 004°47'1 1.8
2017-Nov-15 23:27N 46°50' W 004°45'1 1.4
2017-Nov-15 23:00N 46°50' W 004°44'2 0.3
2017-Nov-15 18:10N 46°49' W 004°47'0 2.6
2017-Nov-15 18:00N 46°49' W 004°47'3 2.7
2017-Nov-15 16:52N 46°46' W 004°49'3 1.6
2017-Nov-15 15:12N 46°44' W 004°51'2 4.1
2017-Nov-15 14:43N 46°45' W 004°49'4 4.7
2017-Nov-15 13:52N 46°48' W 004°53'1 2.5
2017-Nov-15 13:30N 46°49' W 004°53'2 1.9
2017-Nov-15 12:21N 46°49' W 004°56'5 4.2
2017-Nov-15 11:14N 46°45' W 004°51'2 0.5
2017-Nov-15 06:41N 46°47' W 004°53'6 2.5
2017-Nov-15 04:29N 46°51' W 004°59'3 0.1
2017-Nov-14 04:19N 46°52' W 005°03'2 2.1
2017-Nov-14 03:11N 46°51' W 005°00'1 2.1
2017-Nov-14 02:31N 46°52' W 004°59'0 2.0
2017-Nov-14 02:30N 46°52' W 004°59'2 1.5
2017-Nov-14 01:05N 46°54' W 004°60'  
2017-Nov-11 19:38N 47°02' W 005°17'4 1.0
2017-Nov-11 15:41N 46°59' W 005°13'1 0.5
2017-Nov-11 14:21N 46°59' W 005°14'1 2.0
2017-Nov-11 14:00N 46°58' W 005°14'2 3.0
2017-Nov-11 13:30N 46°57' W 005°13'3 5.2
2017-Nov-11 13:00N 46°59' W 005°15'1 2.6
2017-Nov-11 12:30N 47°01' W 005°15'8 0.3
2017-Nov-10 06:25N 47°02' W 005°26'1 2.0
2017-Nov-10 05:43N 47°03' W 005°27'1 1.7
2017-Nov-10 05:22N 47°03' W 005°28'3 1.9
2017-Nov-10 03:50N 47°03' W 005°32'45 1.6
2017-Nov-09 00:27N 47°31' W 004°41'8 7.6
2017-Nov-08 23:25N 47°35' W 004°31'3 7.6
2017-Nov-08 23:00N 47°37' W 004°27'4 7.4
2017-Nov-08 22:30N 47°39' W 004°23'4 7.3
2017-Nov-08 21:59N 47°41' W 004°19'4 7.3
2017-Nov-08 21:30N 47°44' W 004°15'4 7.7
2017-Nov-08 21:00N 47°46' W 004°10'4 7.5
2017-Nov-08 20:30N 47°50' W 004°08'2 3.2
2017-Nov-08 20:00N 47°50' W 004°10'0 0.0
2017-Nov-08 09:58N 47°50' W 004°10'0 0.0
2017-Nov-08 09:29N 47°50' W 004°10'  
Track history (hours):
 
Tides and Currents Weather Stations Pressure Air Temp Water Temp Dewpoint Dewpoint Depression Visibility Wind Speed Wind Dir Waves Ship Positions

Notre Dame

Last reported at 2017-Nov-17 20:27 UTC. Time now 2017-Nov-22 13:12 UTC.
Position N 47°50' W 004°10'.

Length 24 m; draft 3.4 m.

Type: Fishing. MMSI: 227820000.

Date/timePositionNaut miles runAvg speedWind from/ knotsBaromVisibWave heightAir tempDewpointWater temp
2017-Nov-17 20:27N 47°50' W 004°10'0 0.0
2017-Nov-17 19:59N 47°50' W 004°10'0 0.0
2017-Nov-17 19:26N 47°50' W 004°10'0 0.0
2017-Nov-17 18:56N 47°50' W 004°10'0 0.0
2017-Nov-17 18:30N 47°50' W 004°10'0 0.0
2017-Nov-17 18:00N 47°50' W 004°10'0 0.0
2017-Nov-17 17:29N 47°50' W 004°10'0 0.0
2017-Nov-17 17:00N 47°50' W 004°10'0 0.0
2017-Nov-17 16:28N 47°50' W 004°10'0 0.0
2017-Nov-17 15:56N 47°50' W 004°10'0 0.1
2017-Nov-17 14:44N 47°50' W 004°10'2 6.2
2017-Nov-17 14:26N 47°49' W 004°08'5 9.9
2017-Nov-17 13:56N 47°45' W 004°11'5 9.8
2017-Nov-17 13:22N 47°39' W 004°14'5 9.8
2017-Nov-17 12:54N 47°35' W 004°16'4 9.7
2017-Nov-17 12:28N 47°31' W 004°18'5 9.9
2017-Nov-17 12:00N 47°27' W 004°21'21 9.9
2017-Nov-17 09:54N 47°07' W 004°31'7 9.7
2017-Nov-17 09:11N 47°01' W 004°34'3 9.6
2017-Nov-17 08:53N 46°58' W 004°36'4 9.5
2017-Nov-17 08:30N 46°54' W 004°37'13 7.6
2017-Nov-17 06:51N 46°43' W 004°44'1 2.2
2017-Nov-17 06:29N 46°42' W 004°44'1 1.8
2017-Nov-17 05:58N 46°41' W 004°45'1 2.0
2017-Nov-17 05:30N 46°41' W 004°46'1 1.5
2017-Nov-17 04:58N 46°41' W 004°46'1 2.3
2017-Nov-17 04:30N 46°42' W 004°46'0 0.8
2017-Nov-17 04:00N 46°43' W 004°46'0 1.0
2017-Nov-17 03:30N 46°43' W 004°47'1 1.8
2017-Nov-17 02:57N 46°44' W 004°46'1 2.2
2017-Nov-17 02:30N 46°45' W 004°45'2 1.3
2017-Nov-17 01:00N 46°44' W 004°48'1 1.9
2017-Nov-17 00:14N 46°43' W 004°49'3 1.5
2017-Nov-16 22:00N 46°46' W 004°47'2 0.3
2017-Nov-16 16:10N 46°48' W 004°46'2 2.6
2017-Nov-16 15:32N 46°47' W 004°46'1 2.3
2017-Nov-16 14:53N 46°45' W 004°45'3 0.5
2017-Nov-16 08:45N 46°46' W 004°50'1 0.9
2017-Nov-16 07:40N 46°46' W 004°51'1 2.0
2017-Nov-16 07:13N 46°47' W 004°50'3 3.6
2017-Nov-16 06:14N 46°45' W 004°47'1 1.2
2017-Nov-16 05:36N 46°45' W 004°48'1 9.2
2017-Nov-16 05:30N 46°46' W 004°48'3 6.3
2017-Nov-16 04:59N 46°48' W 004°51'1 1.7
2017-Nov-16 04:30N 46°47' W 004°52'1 1.9
2017-Nov-16 03:52N 46°46' W 004°52'1 2.2
2017-Nov-16 03:30N 46°45' W 004°53'1 1.7
2017-Nov-16 02:57N 46°46' W 004°53'1 2.6
2017-Nov-16 02:30N 46°47' W 004°53'1 1.8
2017-Nov-16 01:59N 46°48' W 004°52'1 2.1
2017-Nov-16 01:27N 46°49' W 004°51'1 2.3
2017-Nov-16 00:56N 46°49' W 004°50'1 2.1
2017-Nov-16 00:26N 46°49' W 004°48'1 2.0
2017-Nov-16 00:00N 46°50' W 004°47'1 1.8
2017-Nov-15 23:27N 46°50' W 004°45'1 1.4
2017-Nov-15 23:00N 46°50' W 004°44'2 0.3
2017-Nov-15 18:10N 46°49' W 004°47'0 2.6
2017-Nov-15 18:00N 46°49' W 004°47'3 2.7
2017-Nov-15 16:52N 46°46' W 004°49'3 1.6
2017-Nov-15 15:12N 46°44' W 004°51'2 4.1
2017-Nov-15 14:43N 46°45' W 004°49'4 4.7
2017-Nov-15 13:52N 46°48' W 004°53'1 2.5
2017-Nov-15 13:30N 46°49' W 004°53'2 1.9
2017-Nov-15 12:21N 46°49' W 004°56'5 4.2
2017-Nov-15 11:14N 46°45' W 004°51'2 0.5
2017-Nov-15 06:41N 46°47' W 004°53'6 2.5
2017-Nov-15 04:29N 46°51' W 004°59'3 0.1
2017-Nov-14 04:19N 46°52' W 005°03'2 2.1
2017-Nov-14 03:11N 46°51' W 005°00'1 2.1
2017-Nov-14 02:31N 46°52' W 004°59'0 2.0
2017-Nov-14 02:30N 46°52' W 004°59'2 1.5
2017-Nov-14 01:05N 46°54' W 004°60'  
2017-Nov-11 19:38N 47°02' W 005°17'4 1.0
2017-Nov-11 15:41N 46°59' W 005°13'1 0.5
2017-Nov-11 14:21N 46°59' W 005°14'1 2.0
2017-Nov-11 14:00N 46°58' W 005°14'2 3.0
2017-Nov-11 13:30N 46°57' W 005°13'3 5.2
2017-Nov-11 13:00N 46°59' W 005°15'1 2.6
2017-Nov-11 12:30N 47°01' W 005°15'8 0.3
2017-Nov-10 06:25N 47°02' W 005°26'1 2.0
2017-Nov-10 05:43N 47°03' W 005°27'1 1.7
2017-Nov-10 05:22N 47°03' W 005°28'3 1.9
2017-Nov-10 03:50N 47°03' W 005°32'45 1.6
2017-Nov-09 00:27N 47°31' W 004°41'8 7.6
2017-Nov-08 23:25N 47°35' W 004°31'3 7.6
2017-Nov-08 23:00N 47°37' W 004°27'4 7.4
2017-Nov-08 22:30N 47°39' W 004°23'4 7.3
2017-Nov-08 21:59N 47°41' W 004°19'4 7.3
2017-Nov-08 21:30N 47°44' W 004°15'4 7.7
2017-Nov-08 21:00N 47°46' W 004°10'4 7.5
2017-Nov-08 20:30N 47°50' W 004°08'2 3.2
2017-Nov-08 20:00N 47°50' W 004°10'0 0.0
2017-Nov-08 09:58N 47°50' W 004°10'0 0.0
2017-Nov-08 09:29N 47°50' W 004°10'  

Dump ship's entire track history